createdAt,value
2018-06-05T00:03:08.355Z,64.10
2018-06-05T00:07:12.083Z,64.10
2018-06-05T00:11:15.777Z,64.60
2018-06-05T00:15:19.412Z,63.60
2018-06-05T00:19:23.079Z,64.30
2018-06-05T00:23:26.738Z,64.20
2018-06-05T00:27:30.492Z,64.50
2018-06-05T00:35:37.471Z,64.30
2018-06-05T00:39:41.155Z,65.40
2018-06-05T00:43:44.828Z,65.20
2018-06-05T00:47:48.526Z,64.90
2018-06-05T00:52:03.462Z,64.40
2018-06-05T00:56:07.408Z,64.80
2018-06-05T01:00:11.116Z,65.10
2018-06-05T01:04:14.792Z,65.10
2018-06-05T01:08:18.497Z,65.70
2018-06-05T01:12:22.218Z,65.20
2018-06-05T01:16:25.960Z,65.30
2018-06-05T01:20:29.651Z,65.20
2018-06-05T01:24:33.321Z,65.70
2018-06-05T01:28:37.016Z,66.00
2018-06-05T01:32:40.639Z,65.60
2018-06-05T01:36:44.307Z,65.80
2018-06-05T01:40:47.972Z,65.40
2018-06-05T01:44:51.640Z,66.70
2018-06-05T01:48:55.331Z,65.60
2018-06-05T01:52:58.948Z,65.40
2018-06-05T01:57:02.701Z,65.30
2018-06-05T02:01:06.372Z,65.20
2018-06-05T02:05:10.120Z,65.30
2018-06-05T02:09:13.767Z,65.60
2018-06-05T02:13:17.432Z,65.50
2018-06-05T02:17:21.136Z,65.70
2018-06-05T02:21:24.912Z,65.60
2018-06-05T02:25:28.584Z,65.70
2018-06-05T02:29:32.219Z,66.90
2018-06-05T02:33:35.897Z,65.50
2018-06-05T02:37:39.671Z,65.20
2018-06-05T02:41:43.356Z,65.10
2018-06-05T02:45:47.027Z,65.30
2018-06-05T02:49:50.636Z,65.60
2018-06-05T02:53:54.295Z,65.50
2018-06-05T02:57:57.945Z,65.50
2018-06-05T03:02:01.639Z,66.60
2018-06-05T03:06:05.363Z,65.60
2018-06-05T03:10:09.014Z,65.60
2018-06-05T03:14:12.678Z,65.80
2018-06-05T03:18:16.360Z,66.80
2018-06-05T03:22:20.035Z,65.70
2018-06-05T03:26:23.726Z,67.00
2018-06-05T03:30:27.378Z,65.90
2018-06-05T03:34:31.039Z,65.60
2018-06-05T03:38:34.722Z,66.70
2018-06-05T03:42:38.400Z,65.80
2018-06-05T03:46:42.100Z,65.80
2018-06-05T03:50:45.746Z,65.70
2018-06-05T03:54:49.433Z,65.70
2018-06-05T03:58:53.112Z,65.70
2018-06-05T04:02:56.783Z,65.50
2018-06-05T04:07:00.510Z,65.60
2018-06-05T04:11:04.148Z,66.00
2018-06-05T04:15:07.896Z,66.10
2018-06-05T04:19:11.576Z,65.90
2018-06-05T04:23:15.331Z,65.90
2018-06-05T04:27:19.073Z,66.80
2018-06-05T04:31:22.714Z,66.30
2018-06-05T04:39:29.771Z,65.90
2018-06-05T04:43:33.422Z,65.90
2018-06-05T04:47:37.150Z,66.20
2018-06-05T04:51:40.836Z,66.00
2018-06-05T04:55:44.506Z,65.90
2018-06-05T04:59:48.176Z,66.20
2018-06-05T05:03:51.850Z,66.60
2018-06-05T05:07:55.559Z,66.60
2018-06-05T05:11:59.213Z,66.30
2018-06-05T05:16:02.899Z,66.10
2018-06-05T05:20:06.664Z,66.30
2018-06-05T05:24:10.332Z,66.20
2018-06-05T05:28:14.024Z,66.20
2018-06-05T05:32:17.664Z,66.70
2018-06-05T05:36:21.329Z,66.40
2018-06-05T05:40:25.023Z,66.90
2018-06-05T05:44:28.703Z,66.80
2018-06-05T05:48:32.375Z,66.40
2018-06-05T05:52:36.029Z,67.00
2018-06-05T05:56:39.693Z,66.80
2018-06-05T06:00:43.383Z,67.10
2018-06-05T06:04:47.069Z,67.20
2018-06-05T06:08:50.785Z,66.80
2018-06-05T06:12:54.434Z,67.60
2018-06-05T06:16:58.107Z,66.70
2018-06-05T06:21:01.803Z,66.90
2018-06-05T06:25:05.718Z,66.90
2018-06-05T06:29:09.393Z,67.60
2018-06-05T06:33:13.038Z,67.90
2018-06-05T06:37:16.717Z,66.80
2018-06-05T06:41:20.429Z,66.80
2018-06-05T06:45:24.103Z,66.90
2018-06-05T06:49:27.775Z,66.90
2018-06-05T06:53:31.401Z,66.10
2018-06-05T06:57:35.102Z,66.90
2018-06-05T07:01:38.789Z,66.60
2018-06-05T07:05:42.517Z,66.80
2018-06-05T07:09:46.180Z,66.70
2018-06-05T07:13:49.844Z,66.60
2018-06-05T07:17:56.324Z,66.70
2018-06-05T07:22:00.018Z,66.90
2018-06-05T07:26:03.722Z,66.80
2018-06-05T07:30:07.509Z,66.20
2018-06-05T07:34:11.182Z,67.00
2018-06-05T07:38:14.860Z,66.70
2018-06-05T07:42:18.526Z,67.10
2018-06-05T07:46:22.217Z,66.70
2018-06-05T07:50:25.959Z,66.90
2018-06-05T07:54:30.337Z,66.50
2018-06-05T07:58:34.857Z,66.60
2018-06-05T08:02:38.552Z,66.60
2018-06-05T08:06:42.331Z,66.90
2018-06-05T08:10:46.056Z,67.80
2018-06-05T08:14:49.759Z,66.80
2018-06-05T08:18:53.435Z,66.80
2018-06-05T08:22:57.584Z,66.70
2018-06-05T08:27:01.268Z,66.70
2018-06-05T08:31:04.972Z,66.70
2018-06-05T08:35:08.691Z,67.00
2018-06-05T08:39:12.335Z,67.00
2018-06-05T08:43:15.991Z,66.80
2018-06-05T08:47:19.696Z,66.70
2018-06-05T08:51:23.361Z,66.90
2018-06-05T08:55:27.046Z,66.60
2018-06-05T08:59:30.659Z,66.60
2018-06-05T09:03:34.308Z,66.60
2018-06-05T09:07:38.028Z,66.50
2018-06-05T09:11:41.695Z,65.70
2018-06-05T09:15:45.352Z,66.40
2018-06-05T09:19:48.979Z,66.40
2018-06-05T09:23:52.658Z,66.40
2018-06-05T09:27:56.352Z,66.40
2018-06-05T09:32:00.013Z,66.60
2018-06-05T09:36:03.670Z,66.60
2018-06-05T09:40:07.308Z,66.80
2018-06-05T09:44:10.952Z,67.00
2018-06-05T09:48:14.610Z,66.70
2018-06-05T09:52:18.281Z,66.80
2018-06-05T09:56:22.004Z,66.90
2018-06-05T10:00:30.968Z,66.70
2018-06-05T10:04:34.634Z,66.60
2018-06-05T10:08:38.351Z,66.80
2018-06-05T10:12:42.004Z,66.90
2018-06-05T10:16:45.663Z,66.90
2018-06-05T10:20:49.305Z,66.50
2018-06-05T10:24:52.976Z,67.10
2018-06-05T10:28:56.611Z,67.00
2018-06-05T10:33:00.368Z,67.00
2018-06-05T10:37:04.021Z,67.00
2018-06-05T10:41:07.649Z,66.90
2018-06-05T10:45:11.433Z,66.70
2018-06-05T10:49:15.088Z,66.40
2018-06-05T10:53:18.731Z,66.30
2018-06-05T10:57:22.383Z,66.20
2018-06-05T11:01:25.995Z,66.10
2018-06-05T11:05:29.744Z,66.10
2018-06-05T11:09:33.411Z,66.00
2018-06-05T11:13:37.080Z,66.00
2018-06-05T11:17:40.729Z,65.90
2018-06-05T11:21:44.352Z,66.10
2018-06-05T11:25:48.025Z,66.00
2018-06-05T11:29:51.698Z,66.00
2018-06-05T11:33:55.385Z,66.30
2018-06-05T11:37:59.051Z,64.80
2018-06-05T11:42:02.693Z,65.40
2018-06-05T11:46:06.478Z,65.60
2018-06-05T11:50:10.142Z,65.90
2018-06-05T11:54:13.827Z,66.10
2018-06-05T11:58:17.455Z,65.50
2018-06-05T12:02:21.118Z,65.80
2018-06-05T12:06:24.796Z,65.60
2018-06-05T12:10:28.451Z,65.60
2018-06-05T12:14:32.101Z,65.80
2018-06-05T12:18:35.755Z,65.10
2018-06-05T12:22:39.390Z,65.20
2018-06-05T12:26:43.061Z,65.50
2018-06-05T12:30:46.729Z,64.70
2018-06-05T12:34:50.398Z,64.80
2018-06-05T12:38:54.046Z,65.10
2018-06-05T12:42:57.678Z,65.50
2018-06-05T12:47:01.336Z,65.00
2018-06-05T12:51:05.023Z,65.10
2018-06-05T12:55:08.765Z,64.70
2018-06-05T12:59:12.439Z,65.00
2018-06-05T13:03:16.088Z,65.00
2018-06-05T13:07:19.780Z,63.40
2018-06-05T13:11:23.478Z,64.10
2018-06-05T13:15:33.860Z,64.70
2018-06-05T13:19:37.508Z,64.90
2018-06-05T13:23:41.166Z,62.40
2018-06-05T13:27:44.818Z,62.70
2018-06-05T13:31:48.515Z,63.10
2018-06-05T13:35:52.208Z,62.20
2018-06-05T13:39:55.863Z,61.90
2018-06-05T13:43:59.545Z,61.90
2018-06-05T13:48:03.235Z,62.90
2018-06-05T13:52:06.940Z,62.30
2018-06-05T13:56:10.632Z,62.10
2018-06-05T14:00:14.324Z,61.50
2018-06-05T14:04:18.012Z,61.10
2018-06-05T14:08:21.720Z,61.80
2018-06-05T14:12:25.414Z,60.90
2018-06-05T14:16:29.088Z,61.60
2018-06-05T14:20:32.762Z,61.80
2018-06-05T14:24:36.441Z,61.70
2018-06-05T14:28:40.136Z,61.10
2018-06-05T14:32:43.782Z,59.00
2018-06-05T14:36:47.424Z,60.60
2018-06-05T14:40:51.071Z,60.50
2018-06-05T14:44:54.817Z,57.70
2018-06-05T14:48:58.533Z,58.70
2018-06-05T14:53:02.180Z,59.50
2018-06-05T14:57:06.025Z,60.40
2018-06-05T15:01:09.698Z,59.30
2018-06-05T15:05:13.380Z,59.00
2018-06-05T15:09:16.999Z,58.80
2018-06-05T15:13:20.715Z,59.40
2018-06-05T15:17:24.358Z,59.50
2018-06-05T15:21:28.013Z,58.90
2018-06-05T15:25:31.655Z,58.60
2018-06-05T15:29:35.264Z,59.50
2018-06-05T15:33:38.904Z,59.00
2018-06-05T15:37:42.552Z,59.20
2018-06-05T15:41:46.221Z,59.40
2018-06-05T15:45:49.891Z,59.30
2018-06-05T15:49:53.528Z,57.70
2018-06-05T15:53:57.172Z,59.10
2018-06-05T15:58:00.874Z,59.10
2018-06-05T16:02:04.562Z,58.30
2018-06-05T16:06:08.259Z,58.60
2018-06-05T16:10:11.981Z,58.80
2018-06-05T16:14:15.641Z,58.60
2018-06-05T16:18:19.295Z,58.80
2018-06-05T16:26:11.043Z,58.70
2018-06-05T16:30:14.653Z,59.30
2018-06-05T16:34:18.356Z,58.70
2018-06-05T16:38:22.032Z,58.90
2018-06-05T16:42:25.676Z,58.70
2018-06-05T16:46:29.310Z,58.20
2018-06-05T16:50:32.929Z,58.20
2018-06-05T16:54:36.580Z,58.50
2018-06-05T16:58:40.217Z,58.00
2018-06-05T17:02:43.973Z,58.80
2018-06-05T17:06:47.663Z,58.00
2018-06-05T17:10:51.259Z,58.30
2018-06-05T17:14:54.934Z,58.30
2018-06-05T17:18:58.569Z,58.50
2018-06-05T17:23:02.325Z,58.40
2018-06-05T17:27:06.021Z,58.50
2018-06-05T17:31:09.653Z,58.60
2018-06-05T17:35:13.345Z,58.40
2018-06-05T17:39:17.055Z,58.10
2018-06-05T17:43:20.708Z,58.00
2018-06-05T17:47:24.356Z,58.00
2018-06-05T17:51:28.000Z,57.90
2018-06-05T17:55:31.648Z,56.70
2018-06-05T17:59:35.300Z,57.80
2018-06-05T18:03:38.961Z,57.80
2018-06-05T18:07:42.704Z,58.00
2018-06-05T18:11:46.342Z,58.00
2018-06-05T18:15:50.011Z,57.80
2018-06-05T18:19:53.682Z,57.30
2018-06-05T18:23:57.331Z,57.30
2018-06-05T18:28:01.041Z,57.50
2018-06-05T18:32:04.718Z,57.40
2018-06-05T18:36:08.360Z,57.20
2018-06-05T18:40:12.011Z,58.20
2018-06-05T18:44:15.831Z,57.70
2018-06-05T18:48:19.472Z,57.80
2018-06-05T18:52:23.155Z,57.80
2018-06-05T18:56:26.789Z,57.80
2018-06-05T19:00:30.441Z,57.80
2018-06-05T19:04:34.132Z,57.90
2018-06-05T19:08:37.830Z,58.00
2018-06-05T19:12:41.500Z,58.00
2018-06-05T19:16:45.178Z,58.70
2018-06-05T19:20:48.845Z,58.10
2018-06-05T19:24:52.505Z,58.10
2018-06-05T19:28:56.171Z,58.20
2018-06-05T19:32:59.855Z,58.20
2018-06-05T19:37:03.483Z,58.30
2018-06-05T19:41:07.228Z,58.30
2018-06-05T19:45:11.224Z,58.40
2018-06-05T19:49:14.897Z,59.00
2018-06-05T19:53:18.547Z,58.40
2018-06-05T19:57:22.269Z,58.40
2018-06-05T20:01:25.918Z,58.50
2018-06-05T20:05:29.647Z,58.50
2018-06-05T20:09:33.284Z,58.60
2018-06-05T20:13:36.958Z,58.60
2018-06-05T20:17:40.692Z,58.70
2018-06-05T20:21:44.372Z,58.70
2018-06-05T20:25:48.043Z,58.80
2018-06-05T20:29:51.723Z,58.80
2018-06-05T20:33:55.388Z,58.70
2018-06-05T20:37:59.010Z,58.80
2018-06-05T20:42:02.678Z,58.80
2018-06-05T20:46:06.363Z,59.00
2018-06-05T20:50:10.037Z,59.00
2018-06-05T20:54:13.725Z,58.90
2018-06-05T20:58:17.344Z,59.10
2018-06-05T21:02:21.016Z,59.10
2018-06-05T21:06:24.734Z,59.70
2018-06-05T21:10:28.395Z,59.10
2018-06-05T21:14:32.085Z,59.20
2018-06-05T21:18:35.777Z,59.30
2018-06-05T21:22:39.422Z,59.30
2018-06-05T21:26:43.100Z,59.40
2018-06-05T21:30:46.753Z,59.40
2018-06-05T21:34:50.424Z,59.40
2018-06-05T21:38:54.149Z,59.40
2018-06-05T21:42:57.804Z,59.50
2018-06-05T21:47:01.461Z,59.50
2018-06-05T21:51:05.143Z,59.70
2018-06-05T21:55:08.876Z,59.50
2018-06-05T21:59:12.532Z,59.50
2018-06-05T22:03:16.159Z,59.50
2018-06-05T22:07:19.841Z,59.50
2018-06-05T22:11:23.538Z,59.60
2018-06-05T22:15:27.197Z,59.70
2018-06-05T22:19:30.860Z,59.60
2018-06-05T22:23:34.473Z,59.60
2018-06-05T22:27:38.218Z,59.70
2018-06-05T22:31:41.897Z,59.70
2018-06-05T22:35:45.545Z,59.80
2018-06-05T22:39:49.235Z,59.80
2018-06-05T22:43:52.864Z,59.80
2018-06-05T22:47:56.521Z,59.70
2018-06-05T22:52:00.263Z,59.80
2018-06-05T22:56:04.029Z,60.00
2018-06-05T23:00:07.757Z,59.90
2018-06-05T23:04:11.395Z,60.00
2018-06-05T23:08:15.089Z,60.70
2018-06-05T23:12:18.729Z,59.90
2018-06-05T23:16:22.400Z,60.00
2018-06-05T23:24:29.459Z,60.00
2018-06-05T23:28:33.128Z,60.90
2018-06-05T23:32:36.794Z,60.00
2018-06-05T23:36:40.457Z,59.70
2018-06-05T23:40:44.148Z,60.00
2018-06-05T23:44:47.828Z,60.20
2018-06-05T23:48:51.480Z,60.10
2018-06-05T23:52:55.136Z,60.20
2018-06-05T23:56:58.783Z,60.20
